createdAt,value
2023-02-22T00:00:48.960Z,100.00
2023-02-22T00:03:19.819Z,100.00
2023-02-22T00:05:47.563Z,100.00
2023-02-22T00:08:17.742Z,100.00
2023-02-22T00:10:47.459Z,100.00
2023-02-22T00:13:31.333Z,100.00
2023-02-22T00:16:00.991Z,100.00
2023-02-22T00:18:29.852Z,100.00
2023-02-22T00:21:01.174Z,100.00
2023-02-22T00:23:31.190Z,100.00
2023-02-22T00:26:01.053Z,100.00
2023-02-22T00:28:30.413Z,100.00
2023-02-22T00:30:59.587Z,100.00
2023-02-22T00:33:32.035Z,100.00
2023-02-22T00:35:59.947Z,100.00
2023-02-22T00:38:28.396Z,100.00
2023-02-22T00:40:56.251Z,100.00
2023-02-22T00:43:26.058Z,100.00
2023-02-22T00:45:58.299Z,100.00
2023-02-22T00:48:26.629Z,100.00
2023-02-22T00:50:55.217Z,100.00
2023-02-22T00:53:24.513Z,100.00
2023-02-22T00:55:53.602Z,100.00
2023-02-22T00:58:22.419Z,100.00
2023-02-22T01:00:50.469Z,100.00
2023-02-22T01:03:21.849Z,100.00
2023-02-22T01:05:49.861Z,100.00
2023-02-22T01:08:19.857Z,100.00
2023-02-22T01:10:50.873Z,100.00
2023-02-22T01:13:18.540Z,100.00
2023-02-22T01:15:47.228Z,100.00
2023-02-22T01:18:15.298Z,100.00
2023-02-22T01:20:45.210Z,100.00
2023-02-22T01:23:13.304Z,100.00
2023-02-22T01:25:41.502Z,100.00
2023-02-22T01:28:09.444Z,100.00
2023-02-22T01:30:37.316Z,100.00
2023-02-22T01:33:08.070Z,100.00
2023-02-22T01:35:38.926Z,100.00
2023-02-22T01:38:08.639Z,100.00
2023-02-22T01:40:40.498Z,100.00
2023-02-22T01:43:19.775Z,100.00
2023-02-22T01:45:56.005Z,100.00
2023-02-22T01:48:32.559Z,100.00
2023-02-22T01:51:06.635Z,100.00
2023-02-22T01:53:40.418Z,100.00
2023-02-22T01:56:09.994Z,100.00
2023-02-22T01:58:45.896Z,100.00
2023-02-22T02:01:15.305Z,100.00
2023-02-22T02:03:49.921Z,100.00
2023-02-22T02:06:22.693Z,100.00
2023-02-22T02:09:00.995Z,100.00
2023-02-22T02:11:30.247Z,100.00
2023-02-22T02:13:59.040Z,100.00
2023-02-22T02:16:36.028Z,100.00
2023-02-22T02:19:15.976Z,100.00
2023-02-22T02:22:12.920Z,100.00
2023-02-22T02:25:10.393Z,100.00
2023-02-22T02:28:01.461Z,100.00
2023-02-22T02:30:54.298Z,100.00
2023-02-22T02:33:34.196Z,100.00
2023-02-22T02:36:13.000Z,100.00
2023-02-22T02:38:49.703Z,100.00
2023-02-22T02:41:27.050Z,100.00
2023-02-22T02:44:02.707Z,100.00
2023-02-22T02:46:36.139Z,100.00
2023-02-22T02:49:11.882Z,100.00
2023-02-22T02:51:46.289Z,100.00
2023-02-22T02:54:16.180Z,100.00
2023-02-22T02:56:45.584Z,100.00
2023-02-22T02:59:26.578Z,100.00
2023-02-22T03:02:10.422Z,100.00
2023-02-22T03:04:51.881Z,100.00
2023-02-22T03:07:44.862Z,100.00
2023-02-22T03:10:45.573Z,100.00
2023-02-22T03:13:28.337Z,100.00
2023-02-22T03:16:11.890Z,100.00
2023-02-22T03:18:54.064Z,100.00
2023-02-22T03:21:49.463Z,100.00
2023-02-22T03:24:25.098Z,100.00
2023-02-22T03:26:59.989Z,100.00
2023-02-22T03:29:32.830Z,100.00
2023-02-22T03:32:07.679Z,100.00
2023-02-22T03:34:42.239Z,100.00
2023-02-22T03:37:17.500Z,100.00
2023-02-22T03:39:49.874Z,100.00
2023-02-22T03:42:24.917Z,100.00
2023-02-22T03:44:58.535Z,100.00
2023-02-22T03:47:37.936Z,100.00
2023-02-22T03:50:12.486Z,100.00
2023-02-22T03:52:45.193Z,100.00
2023-02-22T03:55:15.495Z,100.00
2023-02-22T03:57:49.235Z,100.00
2023-02-22T04:00:21.757Z,100.00
2023-02-22T04:02:50.339Z,100.00
2023-02-22T04:05:18.587Z,100.00
2023-02-22T04:07:49.250Z,100.00
2023-02-22T04:10:17.591Z,100.00
2023-02-22T04:12:45.383Z,100.00
2023-02-22T04:15:17.078Z,100.00
2023-02-22T04:17:45.057Z,100.00
2023-02-22T04:20:13.846Z,100.00
2023-02-22T04:22:42.695Z,100.00
2023-02-22T04:25:15.021Z,100.00
2023-02-22T04:27:42.665Z,100.00
2023-02-22T04:30:11.486Z,100.00
2023-02-22T04:32:39.905Z,100.00
2023-02-22T04:35:08.491Z,100.00
2023-02-22T04:37:36.961Z,100.00
2023-02-22T04:40:07.041Z,100.00
2023-02-22T04:42:37.490Z,100.00
2023-02-22T04:45:08.327Z,100.00
2023-02-22T04:47:37.332Z,100.00
2023-02-22T04:50:08.180Z,100.00
2023-02-22T04:52:36.112Z,100.00
2023-02-22T04:55:05.733Z,100.00
2023-02-22T04:57:37.815Z,100.00
2023-02-22T05:00:06.850Z,100.00
2023-02-22T05:02:35.874Z,100.00
2023-02-22T05:05:03.965Z,100.00
2023-02-22T05:07:32.003Z,100.00
2023-02-22T05:09:59.926Z,100.00
2023-02-22T05:12:27.897Z,100.00
2023-02-22T05:14:58.341Z,100.00
2023-02-22T05:17:26.462Z,100.00
2023-02-22T05:19:54.619Z,100.00
2023-02-22T05:22:23.089Z,100.00
2023-02-22T05:24:51.047Z,100.00
2023-02-22T05:27:23.357Z,100.00
2023-02-22T05:29:51.714Z,100.00
2023-02-22T05:32:21.955Z,100.00
2023-02-22T05:34:50.104Z,100.00
2023-02-22T05:37:19.161Z,100.00
2023-02-22T05:39:47.096Z,100.00
2023-02-22T05:42:16.816Z,100.00
2023-02-22T05:44:44.870Z,100.00
2023-02-22T05:47:13.192Z,100.00
2023-02-22T05:49:42.568Z,100.00
2023-02-22T05:52:11.319Z,100.00
2023-02-22T05:54:40.540Z,100.00
2023-02-22T05:57:09.031Z,100.00
2023-02-22T05:59:39.350Z,100.00
2023-02-22T06:02:07.291Z,100.00
2023-02-22T06:04:39.072Z,100.00
2023-02-22T06:07:09.186Z,100.00
2023-02-22T06:09:39.583Z,100.00
2023-02-22T06:12:08.256Z,100.00
2023-02-22T06:14:37.061Z,100.00
2023-02-22T06:17:09.535Z,100.00
2023-02-22T06:19:37.379Z,100.00
2023-02-22T06:22:08.873Z,100.00
2023-02-22T06:24:40.786Z,100.00
2023-02-22T06:27:10.648Z,100.00
2023-02-22T06:29:42.253Z,100.00
2023-02-22T06:32:10.303Z,100.00
2023-02-22T06:34:38.298Z,100.00
2023-02-22T06:37:08.765Z,100.00
2023-02-22T06:39:37.005Z,100.00
2023-02-22T06:42:07.307Z,100.00
2023-02-22T06:44:35.546Z,100.00
2023-02-22T06:47:04.304Z,100.00
2023-02-22T06:49:33.448Z,100.00
2023-02-22T06:52:02.629Z,100.00
2023-02-22T06:54:30.445Z,100.00
2023-02-22T06:56:58.788Z,100.00
2023-02-22T06:59:29.297Z,100.00
2023-02-22T07:02:00.576Z,100.00
2023-02-22T07:04:38.246Z,100.00
2023-02-22T07:07:07.757Z,100.00
2023-02-22T07:09:36.764Z,100.00
2023-02-22T07:12:05.004Z,100.00
2023-02-22T07:18:02.583Z,100.00
2023-02-22T07:20:34.056Z,100.00
2023-02-22T07:23:10.656Z,100.00
2023-02-22T07:28:16.494Z,100.00
2023-02-22T07:30:49.418Z,100.00
2023-02-22T07:33:28.205Z,100.00
2023-02-22T07:35:57.475Z,100.00
2023-02-22T07:38:26.643Z,100.00
2023-02-22T07:40:56.083Z,100.00
2023-02-22T07:46:21.913Z,100.00
2023-02-22T07:48:51.212Z,100.00
2023-02-22T07:51:20.389Z,100.00
2023-02-22T07:53:49.506Z,100.00
2023-02-22T07:56:17.423Z,100.00
2023-02-22T07:58:55.579Z,100.00
2023-02-22T08:01:26.551Z,100.00
2023-02-22T08:03:55.743Z,100.00
2023-02-22T08:06:27.434Z,100.00
2023-02-22T08:08:56.007Z,100.00
2023-02-22T08:11:24.915Z,100.00
2023-02-22T08:13:53.760Z,100.00
2023-02-22T08:16:22.173Z,100.00
2023-02-22T08:18:53.847Z,100.00
2023-02-22T08:21:28.563Z,100.00
2023-02-22T08:23:56.288Z,100.00
2023-02-22T08:26:25.331Z,100.00
2023-02-22T08:28:58.940Z,100.00
2023-02-22T08:31:27.298Z,100.00
2023-02-22T08:33:54.948Z,100.00
2023-02-22T08:36:24.228Z,100.00
2023-02-22T08:38:51.906Z,100.00
2023-02-22T08:41:23.515Z,100.00
2023-02-22T08:43:51.227Z,100.00
2023-02-22T08:46:19.479Z,100.00
2023-02-22T08:48:50.989Z,100.00
2023-02-22T08:51:54.728Z,100.00
2023-02-22T08:54:22.926Z,100.00
2023-02-22T08:56:51.866Z,100.00
2023-02-22T08:59:19.571Z,100.00
2023-02-22T09:01:47.370Z,100.00
2023-02-22T09:04:15.164Z,100.00
2023-02-22T09:06:45.034Z,100.00
2023-02-22T09:09:15.935Z,100.00
2023-02-22T09:11:47.487Z,100.00
2023-02-22T09:14:16.106Z,100.00
2023-02-22T09:16:45.541Z,100.00
2023-02-22T09:19:13.361Z,100.00
2023-02-22T09:21:41.218Z,100.00
2023-02-22T09:24:10.469Z,100.00
2023-02-22T09:42:42.195Z,100.00
2023-02-22T09:45:20.813Z,100.00
2023-02-22T09:48:19.407Z,100.00
2023-02-22T09:53:35.272Z,94.94
2023-02-22T09:56:10.762Z,100.00
2023-02-22T09:59:13.786Z,95.47
2023-02-22T10:01:48.531Z,85.86
2023-02-22T10:04:23.227Z,100.00
2023-02-22T10:07:18.889Z,100.00
2023-02-22T10:09:49.806Z,100.00
2023-02-22T10:12:30.709Z,100.00
2023-02-22T10:15:36.775Z,97.00
2023-02-22T10:19:03.486Z,99.84
2023-02-22T10:24:30.897Z,96.42
2023-02-22T10:27:03.602Z,100.00
2023-02-22T10:29:37.788Z,82.68
2023-02-22T10:32:17.161Z,80.53
2023-02-22T10:34:48.714Z,83.79
2023-02-22T10:37:25.886Z,72.95
2023-02-22T10:40:00.484Z,63.77
2023-02-22T10:42:30.033Z,61.25
2023-02-22T10:47:37.073Z,62.82
2023-02-22T10:50:07.390Z,65.52
2023-02-22T10:52:36.060Z,69.14
2023-02-22T10:55:14.957Z,71.84
2023-02-22T10:58:02.083Z,67.42
2023-02-22T11:00:33.778Z,66.26
2023-02-22T11:03:17.412Z,63.22
2023-02-22T11:05:47.359Z,62.97
2023-02-22T11:08:23.498Z,63.12
2023-02-22T11:10:54.648Z,64.51
2023-02-22T11:13:28.497Z,67.02
2023-02-22T11:16:00.159Z,72.71
2023-02-22T11:18:32.765Z,72.04
2023-02-22T11:21:10.143Z,75.74
2023-02-22T11:23:43.628Z,77.83
2023-02-22T11:26:16.810Z,77.78
2023-02-22T11:28:48.787Z,82.58
2023-02-22T11:31:19.982Z,81.51
2023-02-22T11:33:54.300Z,79.48
2023-02-22T11:36:37.350Z,79.20
2023-02-22T11:39:21.443Z,77.74
2023-02-22T11:41:53.172Z,75.96
2023-02-22T11:44:25.196Z,82.35
2023-02-22T11:46:56.433Z,81.68
2023-02-22T11:49:40.677Z,85.99
2023-02-22T11:55:26.771Z,85.58
2023-02-22T12:01:10.094Z,90.14
2023-02-22T12:04:01.735Z,99.24
2023-02-22T12:06:45.165Z,100.00
2023-02-22T12:09:22.244Z,100.00
2023-02-22T12:12:04.783Z,100.00
2023-02-22T12:14:44.331Z,100.00
2023-02-22T12:17:32.032Z,96.68
2023-02-22T12:20:06.494Z,100.00
2023-02-22T12:22:44.425Z,100.00
2023-02-22T12:25:21.416Z,100.00
2023-02-22T12:27:55.353Z,100.00
2023-02-22T12:30:27.745Z,100.00
2023-02-22T12:33:00.810Z,100.00
2023-02-22T12:35:34.894Z,100.00
2023-02-22T12:38:14.761Z,100.00
2023-02-22T12:40:55.206Z,100.00
2023-02-22T12:43:31.587Z,100.00
2023-02-22T12:46:08.080Z,100.00
2023-02-22T12:48:49.481Z,100.00
2023-02-22T12:51:37.222Z,100.00
2023-02-22T12:54:16.481Z,100.00
2023-02-22T12:56:53.255Z,100.00
2023-02-22T12:59:29.275Z,100.00
2023-02-22T13:02:08.354Z,100.00
2023-02-22T13:04:37.222Z,100.00
2023-02-22T13:07:24.784Z,100.00
2023-02-22T13:10:08.306Z,100.00
2023-02-22T13:12:50.746Z,100.00
2023-02-22T13:15:28.833Z,100.00
2023-02-22T13:18:09.393Z,100.00
2023-02-22T13:20:45.195Z,100.00
2023-02-22T13:23:24.789Z,100.00
2023-02-22T13:26:14.239Z,100.00
2023-02-22T13:28:48.986Z,100.00
2023-02-22T13:31:40.700Z,100.00
2023-02-22T13:34:51.352Z,100.00
2023-02-22T13:37:43.042Z,100.00
2023-02-22T13:40:52.052Z,100.00
2023-02-22T13:44:03.338Z,100.00
2023-02-22T13:54:55.430Z,100.00
2023-02-22T14:39:45.508Z,100.00
2023-02-22T14:42:20.050Z,100.00
2023-02-22T14:50:22.308Z,100.00
2023-02-22T15:19:06.215Z,100.00
2023-02-22T15:21:35.321Z,100.00
2023-02-22T15:34:59.335Z,100.00
2023-02-22T17:27:50.399Z,78.72
2023-02-22T17:30:19.451Z,100.00
2023-02-22T17:32:48.740Z,100.00
2023-02-22T17:35:20.071Z,100.00
2023-02-22T17:37:48.659Z,100.00
2023-02-22T17:40:17.536Z,100.00
2023-02-22T17:42:46.674Z,100.00
2023-02-22T17:45:16.053Z,100.00
2023-02-22T17:47:43.965Z,100.00
2023-02-22T17:50:12.523Z,100.00
2023-02-22T17:52:40.122Z,100.00
2023-02-22T17:55:10.008Z,100.00
2023-02-22T17:57:41.932Z,100.00
2023-02-22T18:00:14.268Z,100.00
2023-02-22T18:02:44.891Z,100.00
2023-02-22T18:05:13.873Z,100.00
2023-02-22T18:07:42.238Z,100.00
2023-02-22T18:10:11.196Z,100.00
2023-02-22T18:12:41.969Z,100.00
2023-02-22T18:15:13.578Z,100.00
2023-02-22T18:17:44.151Z,100.00
2023-02-22T18:20:13.193Z,100.00
2023-02-22T18:22:43.904Z,100.00
2023-02-22T18:25:13.399Z,100.00
2023-02-22T18:27:42.106Z,100.00
2023-02-22T18:30:11.314Z,100.00
2023-02-22T18:32:40.415Z,100.00
2023-02-22T18:35:09.784Z,100.00
2023-02-22T18:37:40.042Z,100.00
2023-02-22T18:40:09.898Z,100.00
2023-02-22T18:42:40.322Z,100.00
2023-02-22T18:45:10.591Z,100.00
2023-02-22T18:47:40.890Z,100.00
2023-02-22T18:50:13.019Z,100.00
2023-02-22T18:52:40.711Z,100.00
2023-02-22T18:55:08.595Z,100.00
2023-02-22T18:57:36.258Z,100.00
2023-02-22T19:00:06.677Z,100.00
2023-02-22T19:02:35.315Z,100.00
2023-02-22T19:05:05.533Z,100.00
2023-02-22T19:07:39.629Z,100.00
2023-02-22T19:10:09.404Z,100.00
2023-02-22T19:12:38.419Z,100.00
2023-02-22T19:15:06.619Z,100.00
2023-02-22T19:17:40.601Z,100.00
2023-02-22T19:20:12.401Z,100.00
2023-02-22T19:22:41.375Z,100.00
2023-02-22T19:25:09.251Z,100.00
2023-02-22T19:27:36.936Z,100.00
2023-02-22T19:30:06.886Z,100.00
2023-02-22T19:32:35.012Z,100.00
2023-02-22T19:35:02.771Z,100.00
2023-02-22T19:37:31.666Z,100.00
2023-02-22T19:40:02.839Z,100.00
2023-02-22T19:42:31.498Z,100.00
2023-02-22T19:44:59.265Z,100.00
2023-02-22T19:47:27.934Z,100.00
2023-02-22T19:49:56.590Z,100.00
2023-02-22T19:52:25.943Z,100.00
2023-02-22T19:54:53.691Z,100.00
2023-02-22T19:57:24.983Z,100.00
2023-02-22T19:59:52.556Z,100.00
2023-02-22T20:02:20.744Z,100.00
2023-02-22T20:04:48.632Z,100.00
2023-02-22T20:07:16.310Z,100.00
2023-02-22T20:09:44.036Z,100.00
2023-02-22T20:12:11.902Z,100.00
2023-02-22T20:14:41.186Z,100.00
2023-02-22T20:17:08.868Z,100.00
2023-02-22T20:19:36.552Z,100.00
2023-02-22T20:22:04.163Z,100.00
2023-02-22T20:24:36.477Z,100.00
2023-02-22T20:27:04.186Z,100.00
2023-02-22T20:29:31.897Z,100.00
2023-02-22T20:32:03.087Z,100.00
2023-02-22T20:34:33.653Z,100.00
2023-02-22T20:37:02.196Z,100.00
2023-02-22T20:39:39.307Z,100.00
2023-02-22T20:42:06.996Z,100.00
2023-02-22T20:44:34.875Z,100.00
2023-02-22T20:47:06.989Z,100.00
2023-02-22T20:49:37.415Z,100.00
2023-02-22T20:52:11.866Z,100.00
2023-02-22T20:54:40.047Z,100.00
2023-02-22T20:57:07.916Z,100.00
2023-02-22T20:59:35.522Z,100.00
2023-02-22T21:02:05.085Z,100.00
2023-02-22T21:04:32.911Z,100.00
2023-02-22T21:07:00.635Z,100.00
2023-02-22T21:09:29.720Z,100.00
2023-02-22T21:11:57.493Z,100.00
2023-02-22T21:14:26.577Z,100.00
2023-02-22T21:16:54.592Z,100.00
2023-02-22T21:19:24.281Z,100.00
2023-02-22T21:21:53.788Z,100.00
2023-02-22T21:24:23.903Z,100.00
2023-02-22T21:26:51.588Z,100.00
2023-02-22T21:29:19.669Z,100.00
2023-02-22T21:31:47.827Z,100.00
2023-02-22T21:34:16.774Z,100.00
2023-02-22T21:36:46.641Z,100.00
2023-02-22T21:39:17.119Z,100.00
2023-02-22T21:41:47.208Z,100.00
2023-02-22T21:44:17.335Z,100.00
2023-02-22T21:46:45.570Z,100.00
2023-02-22T21:49:13.394Z,100.00
2023-02-22T21:51:41.814Z,100.00
2023-02-22T21:54:12.416Z,100.00
2023-02-22T21:56:42.063Z,100.00
2023-02-22T21:59:13.034Z,100.00
2023-02-22T22:01:43.795Z,100.00
2023-02-22T22:04:11.676Z,100.00
2023-02-22T22:06:39.492Z,100.00
2023-02-22T22:09:07.185Z,100.00
2023-02-22T22:11:36.446Z,100.00
2023-02-22T22:14:04.383Z,100.00
2023-02-22T22:16:32.057Z,100.00
2023-02-22T22:18:59.902Z,100.00
2023-02-22T22:21:27.957Z,100.00
2023-02-22T22:23:55.725Z,100.00
2023-02-22T22:26:24.928Z,100.00
2023-02-22T22:29:00.617Z,100.00
2023-02-22T22:31:28.571Z,100.00
2023-02-22T22:33:57.902Z,100.00
2023-02-22T22:36:27.065Z,100.00
2023-02-22T22:38:56.609Z,100.00
2023-02-22T22:41:25.037Z,100.00
2023-02-22T22:43:52.769Z,100.00
2023-02-22T22:46:21.985Z,100.00
2023-02-22T22:48:49.596Z,100.00
2023-02-22T22:51:20.462Z,100.00
2023-02-22T22:53:50.682Z,100.00
2023-02-22T22:56:22.802Z,100.00
2023-02-22T22:58:54.218Z,100.00
2023-02-22T23:01:25.022Z,100.00
2023-02-22T23:03:54.842Z,100.00
2023-02-22T23:06:24.594Z,100.00
2023-02-22T23:08:56.964Z,100.00
2023-02-22T23:11:30.168Z,100.00
2023-02-22T23:13:57.742Z,100.00
2023-02-22T23:16:28.884Z,100.00
2023-02-22T23:18:56.555Z,100.00
2023-02-22T23:21:24.965Z,100.00
2023-02-22T23:23:57.634Z,100.00
2023-02-22T23:26:26.005Z,100.00
2023-02-22T23:28:56.652Z,100.00
2023-02-22T23:31:24.950Z,100.00
2023-02-22T23:33:53.926Z,100.00
2023-02-22T23:36:21.658Z,100.00
2023-02-22T23:38:49.484Z,100.00
2023-02-22T23:41:20.542Z,100.00
2023-02-22T23:43:48.248Z,100.00
2023-02-22T23:46:17.478Z,100.00
2023-02-22T23:48:49.748Z,100.00
2023-02-22T23:51:21.109Z,100.00
2023-02-22T23:53:48.716Z,100.00
2023-02-22T23:56:19.401Z,100.00
2023-02-22T23:58:48.217Z,100.00
